Time;durP1;ratioP1;P1;durP2;ratioP2;P2;SDS_P1;SDS_P2;PMS_P1;PMS_P2;Temp;Humidity;BMP_temperature;BMP_pressure;BME280_temperature;BME280_humidity;BME280_pressure;Samples;Min_cycle;Max_cycle;Signal;HPM_P1;HPM_P2
2023/08/07 00:01:28;;;;;;;;;;;;;;;;;;4997139;28;20394;-76
2023/08/07 00:04:15;;;;;;;;;;;;;;;;;;4985763;28;19914;-76
2023/08/07 00:07:02;;;;;;;;;;;;;;;;;;5002113;28;19944;-74
2023/08/07 00:09:48;;;;;;;;;;;;;;;;;;5000388;28;20393;-75
2023/08/07 00:12:34;;;;;;;;;;;;;;;;;;4999589;28;19924;-75
2023/08/07 00:15:21;;;;;;;;;;;;;;;;;;4998103;28;20534;-74
2023/08/07 00:18:07;;;;;;;;;;;;;;;;;;4999498;28;19918;-74
2023/08/07 00:20:54;;;;;;;;;;;;;;;;;;4993738;28;20293;-75
2023/08/07 00:23:40;;;;;;;;;;;;;;;;;;4988837;28;19917;-75
2023/08/07 00:26:27;;;;;;;;;;;;;;;;;;5010711;28;19972;-75
2023/08/07 00:29:14;;;;;;;;;;;;;;;;;;5017558;28;20302;-74
2023/08/07 00:32:00;;;;;;;;;;;;;;;;;;5019002;28;19924;-75
2023/08/07 00:34:47;;;;;;;;;;;;;;;;;;5024435;28;19925;-75
2023/08/07 00:37:33;;;;;;;;;;;;;;;;;;5011058;28;19922;-75
2023/08/07 00:40:20;;;;;;;;;;;;;;;;;;5021280;28;19937;-75
2023/08/07 00:43:06;;;;;;;;;;;;;;;;;;5014509;28;19917;-75
2023/08/07 00:45:53;;;;;;;;;;;;;;;;;;5008016;28;20395;-75
2023/08/07 00:48:39;;;;;;;;;;;;;;;;;;5010334;28;19922;-75
2023/08/07 00:51:25;;;;;;;;;;;;;;;;;;5018483;28;20340;-75
2023/08/07 00:54:12;;;;;;;;;;;;;;;;;;5014023;28;19917;-75
2023/08/07 00:56:58;;;;;;;;;;;;;;;;;;5019473;28;19925;-75
2023/08/07 00:59:45;;;;;;;;;;;;;;;;;;5009584;28;20608;-75
2023/08/07 01:02:31;;;;;;;;;;;;;;;;;;5016092;28;19979;-76
2023/08/07 01:05:19;;;;;;;;;;;;;;;;;;5010515;28;20296;-75
2023/08/07 01:08:05;;;;;;;;;;;;;;;;;;5020642;28;19927;-74
2023/08/07 01:10:52;;;;;;;;;;;;;;;;;;5018452;28;20379;-75
2023/08/07 01:13:38;;;;;;;;;;;;;;;;;;5014799;28;19917;-75
2023/08/07 01:16:25;;;;;;;;;;;;;;;;;;5025483;28;20932;-75
2023/08/07 01:19:11;;;;;;;;;;;;;;;;;;5017759;28;19928;-75
2023/08/07 01:21:57;;;;;;;;;;;;;;;;;;4999952;28;19917;-76
2023/08/07 01:24:44;;;;;;;;;;;;;;;;;;5015722;28;20396;-75
2023/08/07 01:27:31;;;;;;;;;;;;;;;;;;5015054;28;19936;-77
2023/08/07 01:30:17;;;;;;;;;;;;;;;;;;5020787;28;19924;-75
2023/08/07 01:33:04;;;;;;;;;;;;;;;;;;5020138;28;19936;-75
2023/08/07 01:35:50;;;;;;;;;;;;;;;;;;5019714;28;19947;-75
2023/08/07 01:38:37;;;;;;;;;;;;;;;;;;5022402;28;19925;-75
2023/08/07 01:41:23;;;;;;;;;;;;;;;;;;5027364;28;19925;-75
2023/08/07 01:44:10;;;;;;;;;;;;;;;;;;5021723;28;19921;-75
2023/08/07 01:46:56;;;;;;;;;;;;;;;;;;5006850;28;19929;-75
2023/08/07 01:49:43;;;;;;;;;;;;;;;;;;5008846;28;19925;-75
2023/08/07 01:52:29;;;;;;;;;;;;;;;;;;5002091;28;19932;-75
2023/08/07 01:55:16;;;;;;;;;;;;;;;;;;5020282;28;19917;-75
2023/08/07 01:58:02;;;;;;;;;;;;;;;;;;5029360;28;19928;-75
2023/08/07 02:00:49;;;;;;;;;;;;;;;;;;5015528;28;20667;-74
2023/08/07 02:03:36;;;;;;;;;;;;;;;;;;5013736;28;19925;-74
2023/08/07 02:06:22;;;;;;;;;;;;;;;;;;5012403;28;19925;-75
2023/08/07 02:09:09;;;;;;;;;;;;;;;;;;5017934;28;19917;-74
2023/08/07 02:11:55;;;;;;;;;;;;;;;;;;5014119;28;19921;-74
2023/08/07 02:14:42;;;;;;;;;;;;;;;;;;5018530;28;20388;-75
2023/08/07 02:17:30;;;;;;;;;;;;;;;;;;5023716;28;19914;-75
2023/08/07 02:20:16;;;;;;;;;;;;;;;;;;5022502;28;19917;-76
2023/08/07 02:23:03;;;;;;;;;;;;;;;;;;5023073;28;20446;-76
2023/08/07 02:25:49;;;;;;;;;;;;;;;;;;5018023;28;19921;-75
2023/08/07 02:28:35;;;;;;;;;;;;;;;;;;5017789;28;19925;-75
2023/08/07 02:31:22;;;;;;;;;;;;;;;;;;5019625;28;19921;-75
2023/08/07 02:34:08;;;;;;;;;;;;;;;;;;5010702;28;19936;-76
2023/08/07 02:36:55;;;;;;;;;;;;;;;;;;5016613;28;19928;-76
2023/08/07 02:39:41;;;;;;;;;;;;;;;;;;5022838;28;19917;-76
2023/08/07 02:42:28;;;;;;;;;;;;;;;;;;5024992;28;19928;-76
2023/08/07 02:45:14;;;;;;;;;;;;;;;;;;5018997;28;19917;-76
2023/08/07 02:48:01;;;;;;;;;;;;;;;;;;5011053;28;19929;-76
2023/08/07 02:50:47;;;;;;;;;;;;;;;;;;5022403;28;19920;-76
2023/08/07 02:53:34;;;;;;;;;;;;;;;;;;5023372;28;19939;-76
2023/08/07 02:56:20;;;;;;;;;;;;;;;;;;5023649;28;19928;-76
2023/08/07 02:59:07;;;;;;;;;;;;;;;;;;5011625;28;19924;-75
2023/08/07 03:01:53;;;;;;;;;;;;;;;;;;5012141;28;19921;-76
2023/08/07 03:04:39;;;;;;;;;;;;;;;;;;5016847;28;20390;-75
2023/08/07 03:07:26;;;;;;;;;;;;;;;;;;5016050;28;19940;-76
2023/08/07 03:10:12;;;;;;;;;;;;;;;;;;5023408;28;20583;-76
2023/08/07 03:12:59;;;;;;;;;;;;;;;;;;4990703;28;19980;-76
2023/08/07 03:15:45;;;;;;;;;;;;;;;;;;5001670;28;20635;-76
2023/08/07 03:18:32;;;;;;;;;;;;;;;;;;4998717;28;19929;-77
2023/08/07 03:21:18;;;;;;;;;;;;;;;;;;4998951;28;19924;-76
2023/08/07 03:24:05;;;;;;;;;;;;;;;;;;5003135;28;19913;-75
2023/08/07 03:26:51;;;;;;;;;;;;;;;;;;5004057;28;19933;-75
2023/08/07 03:29:38;;;;;;;;;;;;;;;;;;4992385;28;19917;-76
2023/08/07 03:32:24;;;;;;;;;;;;;;;;;;4988472;28;19926;-76
2023/08/07 03:35:11;;;;;;;;;;;;;;;;;;5014629;28;19924;-75
2023/08/07 03:37:57;;;;;;;;;;;;;;;;;;5017984;28;20218;-75
2023/08/07 03:40:44;;;;;;;;;;;;;;;;;;5002050;28;19928;-75
2023/08/07 03:43:30;;;;;;;;;;;;;;;;;;5010779;28;20313;-75
2023/08/07 03:46:17;;;;;;;;;;;;;;;;;;5013751;28;19947;-75
2023/08/07 03:49:03;;;;;;;;;;;;;;;;;;5018093;28;19928;-75
2023/08/07 03:51:50;;;;;;;;;;;;;;;;;;5020888;28;20482;-75
2023/08/07 03:54:36;;;;;;;;;;;;;;;;;;5022428;28;19913;-77
2023/08/07 03:57:23;;;;;;;;;;;;;;;;;;5014029;28;19918;-74
2023/08/07 04:00:09;;;;;;;;;;;;;;;;;;5018916;28;19917;-75
2023/08/07 04:02:56;;;;;;;;;;;;;;;;;;5012188;28;19922;-74
2023/08/07 04:05:42;;;;;;;;;;;;;;;;;;5010005;28;19924;-75
2023/08/07 04:08:28;;;;;;;;;;;;;;;;;;5016853;28;19955;-74
2023/08/07 04:11:15;;;;;;;;;;;;;;;;;;5018807;28;20538;-74
2023/08/07 04:14:01;;;;;;;;;;;;;;;;;;5017334;28;19927;-75
2023/08/07 04:16:48;;;;;;;;;;;;;;;;;;5018423;28;20341;-74
2023/08/07 04:19:34;;;;;;;;;;;;;;;;;;5016818;28;19928;-74
2023/08/07 04:22:21;;;;;;;;;;;;;;;;;;5017451;28;20667;-74
2023/08/07 04:25:07;;;;;;;;;;;;;;;;;;5022187;28;19939;-74
2023/08/07 04:27:54;;;;;;;;;;;;;;;;;;5015596;28;19929;-75
2023/08/07 04:30:41;;;;;;;;;;;;;;;;;;5022245;28;19924;-74
2023/08/07 04:33:27;;;;;;;;;;;;;;;;;;5017853;28;19924;-74
2023/08/07 04:36:13;;;;;;;;;;;;;;;;;;5016145;28;20012;-75
2023/08/07 04:39:00;;;;;;;;;;;;;;;;;;5020906;28;19922;-75
2023/08/07 04:41:47;;;;;;;;;;;;;;;;;;5015215;28;19921;-75
2023/08/07 04:44:33;;;;;;;;;;;;;;;;;;5015609;28;19932;-75
2023/08/07 04:47:20;;;;;;;;;;;;;;;;;;5018883;28;19952;-75
2023/08/07 04:50:07;;;;;;;;;;;;;;;;;;5019640;28;19925;-74
2023/08/07 04:52:53;;;;;;;;;;;;;;;;;;5021468;28;19917;-74
2023/08/07 04:55:39;;;;;;;;;;;;;;;;;;5019753;28;19913;-75
2023/08/07 04:58:26;;;;;;;;;;;;;;;;;;5017024;28;20392;-75
2023/08/07 05:01:12;;;;;;;;;;;;;;;;;;5017635;28;19974;-75
2023/08/07 05:03:59;;;;;;;;;;;;;;;;;;5015659;28;19921;-74
2023/08/07 05:06:45;;;;;;;;;;;;;;;;;;5020516;28;20355;-74
2023/08/07 05:09:32;;;;;;;;;;;;;;;;;;5025215;28;19917;-75
2023/08/07 05:12:18;;;;;;;;;;;;;;;;;;5018029;28;19921;-74
2023/08/07 05:15:05;;;;;;;;;;;;;;;;;;5021120;28;19928;-74
2023/08/07 05:17:51;;;;;;;;;;;;;;;;;;5005864;28;19933;-74
2023/08/07 05:20:38;;;;;;;;;;;;;;;;;;5016067;28;19917;-75
2023/08/07 05:23:24;;;;;;;;;;;;;;;;;;5024799;28;19921;-74
2023/08/07 05:26:11;;;;;;;;;;;;;;;;;;5023792;28;19931;-75
2023/08/07 05:28:58;;;;;;;;;;;;;;;;;;5013619;28;19933;-75
2023/08/07 05:31:45;;;;;;;;;;;;;;;;;;5019653;28;20523;-75
2023/08/07 05:34:31;;;;;;;;;;;;;;;;;;5013910;28;19921;-76
2023/08/07 05:37:18;;;;;;;;;;;;;;;;;;5019541;28;20331;-75
2023/08/07 05:40:04;;;;;;;;;;;;;;;;;;5015661;28;19921;-75
2023/08/07 05:42:51;;;;;;;;;;;;;;;;;;5015750;28;20301;-74
2023/08/07 05:45:37;;;;;;;;;;;;;;;;;;5017049;28;19921;-75
2023/08/07 05:48:24;;;;;;;;;;;;;;;;;;5017320;28;20626;-75
2023/08/07 05:51:10;;;;;;;;;;;;;;;;;;5016632;28;19917;-76
2023/08/07 05:53:57;;;;;;;;;;;;;;;;;;5023990;28;19928;-75
2023/08/07 05:56:43;;;;;;;;;;;;;;;;;;5020008;28;19918;-74
2023/08/07 05:59:29;;;;;;;;;;;;;;;;;;5017014;28;19921;-75
2023/08/07 06:02:16;;;;;;;;;;;;;;;;;;5018217;28;19932;-74
2023/08/07 06:05:02;;;;;;;;;;;;;;;;;;5017545;28;20558;-75
2023/08/07 06:07:49;;;;;;;;;;;;;;;;;;5015638;28;19929;-75
2023/08/07 06:10:36;;;;;;;;;;;;;;;;;;5021997;28;19921;-75
2023/08/07 06:13:22;;;;;;;;;;;;;;;;;;5021094;28;19975;-74
2023/08/07 06:16:09;;;;;;;;;;;;;;;;;;5017465;28;19928;-75
2023/08/07 06:18:55;;;;;;;;;;;;;;;;;;5024636;28;20373;-75
2023/08/07 06:21:42;;;;;;;;;;;;;;;;;;5022411;28;19921;-76
2023/08/07 06:24:28;;;;;;;;;;;;;;;;;;5020414;28;20344;-75
2023/08/07 06:27:14;;;;;;;;;;;;;;;;;;5001515;28;19933;-75
2023/08/07 06:30:01;;;;;;;;;;;;;;;;;;5001968;28;19992;-75
2023/08/07 06:32:49;;;;;;;;;;;;;;;;;;4992474;28;19928;-75
2023/08/07 06:35:35;;;;;;;;;;;;;;;;;;4994885;28;19921;-76
2023/08/07 06:38:22;;;;;;;;;;;;;;;;;;4996824;28;20835;-74
2023/08/07 06:41:08;;;;;;;;;;;;;;;;;;4998744;28;20491;-74
2023/08/07 06:43:55;;;;;;;;;;;;;;;;;;4996278;28;19926;-74
2023/08/07 06:46:42;;;;;;;;;;;;;;;;;;4999995;28;20591;-76
2023/08/07 06:49:28;;;;;;;;;;;;;;;;;;5000708;28;20911;-75
2023/08/07 06:52:15;;;;;;;;;;;;;;;;;;4995236;28;19933;-75
2023/08/07 06:55:01;;;;;;;;;;;;;;;;;;4993338;28;19960;-76
2023/08/07 06:57:48;;;;;;;;;;;;;;;;;;5000185;28;19925;-69
2023/08/07 07:00:35;;;;;;;;;;;;;;;;;;4998009;28;19925;-71
2023/08/07 07:03:21;;;;;;;;;;;;;;;;;;4997150;28;19922;-71
2023/08/07 07:06:08;;;;;;;;;;;;;;;;;;4993395;28;19921;-72
2023/08/07 07:08:54;;;;;;;;;;;;;;;;;;4994364;28;19929;-73
2023/08/07 07:11:41;;;;;;;;;;;;;;;;;;4994750;28;19933;-73
2023/08/07 07:14:28;;;;;;;;;;;;;;;;;;4997822;28;19925;-72
2023/08/07 07:17:14;;;;;;;;;;;;;;;;;;4998709;28;19925;-72
2023/08/07 07:20:00;;;;;;;;;;;;;;;;;;4997873;28;19944;-73
2023/08/07 07:22:47;;;;;;;;;;;;;;;;;;4996482;28;19921;-73
2023/08/07 07:25:33;;;;;;;;;;;;;;;;;;5002178;28;19917;-73
2023/08/07 07:28:20;;;;;;;;;;;;;;;;;;5012619;28;19964;-72
2023/08/07 07:31:10;;;;;;;;;;;;;;;;;;5015085;28;19922;-72
2023/08/07 07:33:57;;;;;;;;;;;;;;;;;;5013323;28;20400;-73
2023/08/07 07:36:44;;;;;;;;;;;;;;;;;;5019611;28;19922;-72
2023/08/07 07:39:30;;;;;;;;;;;;;;;;;;5014981;28;19925;-72
2023/08/07 07:42:16;;;;;;;;;;;;;;;;;;5015447;28;19925;-73
2023/08/07 07:45:03;;;;;;;;;;;;;;;;;;5010462;28;19922;-73
2023/08/07 07:47:50;;;;;;;;;;;;;;;;;;5010388;28;19936;-74
2023/08/07 07:50:37;;;;;;;;;;;;;;;;;;5013393;28;19921;-74
2023/08/07 07:53:23;;;;;;;;;;;;;;;;;;5018884;28;20584;-73
2023/08/07 07:56:10;;;;;;;;;;;;;;;;;;5012519;28;19922;-74
2023/08/07 07:58:56;;;;;;;;;;;;;;;;;;5012240;28;20376;-74
2023/08/07 08:01:43;;;;;;;;;;;;;;;;;;5011520;28;19918;-74
2023/08/07 08:04:29;;;;;;;;;;;;;;;;;;5015667;28;19921;-71
2023/08/07 08:07:16;;;;;;;;;;;;;;;;;;5015865;28;19936;-72
2023/08/07 08:10:02;;;;;;;;;;;;;;;;;;5011913;28;20316;-72
2023/08/07 08:12:49;;;;;;;;;;;;;;;;;;5016433;28;19966;-73
2023/08/07 08:15:35;;;;;;;;;;;;;;;;;;5013894;28;20023;-74
2023/08/07 08:18:22;;;;;;;;;;;;;;;;;;5010449;28;19921;-73
2023/08/07 08:21:08;;;;;;;;;;;;;;;;;;5014341;28;19921;-74
2023/08/07 08:23:55;;;;;;;;;;;;;;;;;;5013756;28;19921;-74
2023/08/07 08:26:41;;;;;;;;;;;;;;;;;;4999045;28;20609;-75
2023/08/07 08:29:28;;;;;;;;;;;;;;;;;;4994173;28;19973;-74
2023/08/07 08:32:14;;;;;;;;;;;;;;;;;;4994938;28;19922;-75
2023/08/07 08:35:01;;;;;;;;;;;;;;;;;;4994228;28;19971;-75
2023/08/07 08:37:47;;;;;;;;;;;;;;;;;;4996067;28;20238;-75
2023/08/07 08:40:33;;;;;;;;;;;;;;;;;;4993130;28;19918;-76
2023/08/07 08:43:20;;;;;;;;;;;;;;;;;;4997670;28;20361;-75
2023/08/07 08:46:06;;;;;;;;;;;;;;;;;;4995194;28;19922;-75
2023/08/07 08:48:53;;;;;;;;;;;;;;;;;;4994947;28;19941;-74
2023/08/07 08:51:39;;;;;;;;;;;;;;;;;;4995585;28;19918;-73
2023/08/07 08:54:26;;;;;;;;;;;;;;;;;;4996477;28;19933;-73
2023/08/07 08:57:12;;;;;;;;;;;;;;;;;;4995094;28;19932;-74
2023/08/07 08:59:59;;;;;;;;;;;;;;;;;;4990673;28;20656;-72
2023/08/07 09:02:45;;;;;;;;;;;;;;;;;;4991697;28;19922;-74
2023/08/07 09:05:32;;;;;;;;;;;;;;;;;;4995533;28;19964;-74
2023/08/07 09:08:18;;;;;;;;;;;;;;;;;;4992729;28;19930;-74
2023/08/07 09:11:05;;;;;;;;;;;;;;;;;;4993589;28;19941;-74
2023/08/07 09:13:51;;;;;;;;;;;;;;;;;;4994504;28;19918;-73
2023/08/07 09:16:38;;;;;;;;;;;;;;;;;;4995913;28;19921;-73
2023/08/07 09:19:24;;;;;;;;;;;;;;;;;;4996411;28;19927;-73
2023/08/07 09:22:11;;;;;;;;;;;;;;;;;;4995149;28;20381;-73
2023/08/07 09:24:59;;;;;;;;;;;;;;;;;;4992731;28;19928;-74
2023/08/07 09:27:46;;;;;;;;;;;;;;;;;;4996246;28;19937;-74
2023/08/07 09:30:32;;;;;;;;;;;;;;;;;;4994801;28;19922;-74
2023/08/07 09:33:19;;;;;;;;;;;;;;;;;;4995482;28;20452;-74
2023/08/07 09:36:06;;;;;;;;;;;;;;;;;;4998420;28;19922;-75
2023/08/07 09:38:52;;;;;;;;;;;;;;;;;;4999574;28;19925;-75
2023/08/07 09:41:39;;;;;;;;;;;;;;;;;;4999448;28;19922;-75
2023/08/07 09:44:25;;;;;;;;;;;;;;;;;;4999277;28;19928;-74
2023/08/07 09:47:12;;;;;;;;;;;;;;;;;;4998794;28;20412;-74
2023/08/07 09:49:59;;;;;;;;;;;;;;;;;;4998205;28;19971;-74
2023/08/07 09:52:46;;;;;;;;;;;;;;;;;;4994070;28;19933;-74
2023/08/07 09:55:33;;;;;;;;;;;;;;;;;;4998962;28;19921;-74
2023/08/07 09:58:19;;;;;;;;;;;;;;;;;;5000758;28;19922;-74
2023/08/07 10:01:07;;;;;;;;;;;;;;;;;;4997175;28;19938;-74
2023/08/07 10:03:53;;;;;;;;;;;;;;;;;;4992648;28;19925;-74
2023/08/07 10:06:40;;;;;;;;;;;;;;;;;;4996175;28;20580;-75
2023/08/07 10:09:26;;;;;;;;;;;;;;;;;;4998792;28;19956;-74
2023/08/07 10:12:13;;;;;;;;;;;;;;;;;;4989627;28;19925;-73
2023/08/07 10:14:59;;;;;;;;;;;;;;;;;;4998238;28;20635;-74
2023/08/07 10:17:46;;;;;;;;;;;;;;;;;;5000622;28;19961;-73
2023/08/07 10:20:32;;;;;;;;;;;;;;;;;;5000500;28;19928;-73
2023/08/07 10:23:19;;;;;;;;;;;;;;;;;;4993261;28;19925;-73
2023/08/07 10:26:05;;;;;;;;;;;;;;;;;;5005351;28;19925;-73
2023/08/07 10:28:53;;;;;;;;;;;;;;;;;;5017556;28;19929;-74
2023/08/07 10:31:39;;;;;;;;;;;;;;;;;;5016526;28;19917;-73
2023/08/07 10:34:26;;;;;;;;;;;;;;;;;;5019375;28;19921;-73
2023/08/07 10:37:12;;;;;;;;;;;;;;;;;;5016665;28;19921;-73
2023/08/07 10:39:59;;;;;;;;;;;;;;;;;;5016282;28;19932;-72
2023/08/07 10:42:45;;;;;;;;;;;;;;;;;;5003615;28;19997;-73
2023/08/07 10:45:32;;;;;;;;;;;;;;;;;;5017979;28;19925;-73
2023/08/07 10:48:18;;;;;;;;;;;;;;;;;;5019212;28;19936;-73
2023/08/07 10:51:04;;;;;;;;;;;;;;;;;;5020971;28;19944;-73
2023/08/07 10:53:52;;;;;;;;;;;;;;;;;;5007989;28;19928;-74
2023/08/07 10:56:40;;;;;;;;;;;;;;;;;;5021556;28;20297;-74
2023/08/07 10:59:27;;;;;;;;;;;;;;;;;;5011319;28;19921;-73
2023/08/07 11:02:13;;;;;;;;;;;;;;;;;;5018453;28;19929;-74
2023/08/07 11:05:00;;;;;;;;;;;;;;;;;;5020563;28;19924;-74
2023/08/07 11:07:47;;;;;;;;;;;;;;;;;;5014732;28;20498;-74
2023/08/07 11:10:33;;;;;;;;;;;;;;;;;;5008794;28;20302;-74
2023/08/07 11:13:20;;;;;;;;;;;;;;;;;;5014663;28;19921;-73
2023/08/07 11:16:06;;;;;;;;;;;;;;;;;;5019188;28;19932;-74
2023/08/07 11:18:52;;;;;;;;;;;;;;;;;;5015385;28;19936;-74
2023/08/07 11:21:39;;;;;;;;;;;;;;;;;;5020164;28;19921;-75
2023/08/07 11:24:25;;;;;;;;;;;;;;;;;;5017113;28;19929;-74
2023/08/07 11:27:12;;;;;;;;;;;;;;;;;;5019472;28;19936;-73
2023/08/07 11:29:58;;;;;;;;;;;;;;;;;;5020694;28;19921;-73
2023/08/07 11:32:45;;;;;;;;;;;;;;;;;;5017016;28;19928;-73
2023/08/07 11:35:31;;;;;;;;;;;;;;;;;;5022003;28;19927;-73
2023/08/07 11:38:18;;;;;;;;;;;;;;;;;;5018063;28;19924;-73
2023/08/07 11:41:05;;;;;;;;;;;;;;;;;;5020139;28;19921;-74
2023/08/07 11:43:52;;;;;;;;;;;;;;;;;;5011734;28;19924;-73
2023/08/07 11:46:38;;;;;;;;;;;;;;;;;;5013411;28;19928;-73
2023/08/07 11:49:25;;;;;;;;;;;;;;;;;;5017515;28;19937;-73
2023/08/07 11:52:13;;;;;;;;;;;;;;;;;;5022089;28;19925;-73
2023/08/07 11:55:00;;;;;;;;;;;;;;;;;;5020239;28;19921;-73
2023/08/07 11:57:46;;;;;;;;;;;;;;;;;;5014574;28;19925;-74
2023/08/07 12:00:33;;;;;;;;;;;;;;;;;;5013304;28;19936;-73
2023/08/07 12:03:19;;;;;;;;;;;;;;;;;;5010170;28;19921;-73
2023/08/07 12:06:06;;;;;;;;;;;;;;;;;;5014902;28;19922;-73
2023/08/07 12:08:52;;;;;;;;;;;;;;;;;;5017036;28;20499;-74
2023/08/07 12:11:39;;;;;;;;;;;;;;;;;;5018244;28;19921;-73
2023/08/07 12:14:25;;;;;;;;;;;;;;;;;;5018360;28;19925;-73
2023/08/07 12:17:12;;;;;;;;;;;;;;;;;;5018012;28;20633;-74
2023/08/07 12:19:58;;;;;;;;;;;;;;;;;;5021037;28;19924;-73
2023/08/07 12:22:45;;;;;;;;;;;;;;;;;;5015808;28;19928;-73
2023/08/07 12:25:31;;;;;;;;;;;;;;;;;;5017978;28;19925;-74
2023/08/07 12:28:18;;;;;;;;;;;;;;;;;;5020708;28;19929;-73
2023/08/07 12:31:04;;;;;;;;;;;;;;;;;;5017601;28;19921;-73
2023/08/07 12:33:51;;;;;;;;;;;;;;;;;;5016245;28;19921;-73
2023/08/07 12:36:37;;;;;;;;;;;;;;;;;;5017047;28;19925;-74
2023/08/07 12:39:24;;;;;;;;;;;;;;;;;;5011787;28;19929;-73
2023/08/07 12:42:10;;;;;;;;;;;;;;;;;;5012682;28;19922;-74
2023/08/07 12:44:58;;;;;;;;;;;;;;;;;;5017321;28;19932;-74
2023/08/07 12:47:44;;;;;;;;;;;;;;;;;;5002739;28;20293;-74
2023/08/07 12:50:31;;;;;;;;;;;;;;;;;;5008610;28;20293;-74
2023/08/07 12:53:17;;;;;;;;;;;;;;;;;;5018412;28;19928;-73
2023/08/07 12:56:05;;;;;;;;;;;;;;;;;;5020076;28;19928;-73
2023/08/07 12:58:52;;;;;;;;;;;;;;;;;;5021444;28;20368;-73
2023/08/07 13:01:38;;;;;;;;;;;;;;;;;;5003189;28;20289;-74
2023/08/07 13:04:25;;;;;;;;;;;;;;;;;;5019937;28;19931;-73
2023/08/07 13:07:11;;;;;;;;;;;;;;;;;;5014779;28;19925;-73
2023/08/07 13:09:58;;;;;;;;;;;;;;;;;;5018010;28;19936;-73
2023/08/07 13:12:44;;;;;;;;;;;;;;;;;;5017429;28;19925;-74
2023/08/07 13:15:31;;;;;;;;;;;;;;;;;;5022998;28;19921;-73
2023/08/07 13:18:17;;;;;;;;;;;;;;;;;;5021631;28;19932;-72
2023/08/07 13:21:04;;;;;;;;;;;;;;;;;;5021947;28;19921;-73
2023/08/07 13:23:50;;;;;;;;;;;;;;;;;;5019824;28;19921;-74
2023/08/07 13:26:38;;;;;;;;;;;;;;;;;;5025226;28;19933;-74
2023/08/07 13:29:26;;;;;;;;;;;;;;;;;;5024544;28;19929;-74
2023/08/07 13:32:13;;;;;;;;;;;;;;;;;;5021021;28;19924;-74
2023/08/07 13:34:59;;;;;;;;;;;;;;;;;;5018097;28;19933;-74
2023/08/07 13:37:46;;;;;;;;;;;;;;;;;;5023892;28;19926;-75
2023/08/07 13:40:32;;;;;;;;;;;;;;;;;;5023904;28;19925;-74
2023/08/07 13:43:19;;;;;;;;;;;;;;;;;;5024026;28;19935;-74
2023/08/07 13:46:05;;;;;;;;;;;;;;;;;;5017885;28;19922;-72
2023/08/07 13:48:52;;;;;;;;;;;;;;;;;;5024622;28;19925;-73
2023/08/07 13:51:38;;;;;;;;;;;;;;;;;;5014061;28;19918;-73
2023/08/07 13:54:24;;;;;;;;;;;;;;;;;;5021344;28;20373;-73
2023/08/07 13:57:11;;;;;;;;;;;;;;;;;;5021998;28;19917;-73
2023/08/07 13:59:57;;;;;;;;;;;;;;;;;;5021479;28;20293;-73
2023/08/07 14:02:44;;;;;;;;;;;;;;;;;;5026839;28;19959;-74
2023/08/07 14:05:30;;;;;;;;;;;;;;;;;;5021452;28;19928;-73
2023/08/07 14:08:17;;;;;;;;;;;;;;;;;;5016621;28;20296;-73
2023/08/07 14:11:04;;;;;;;;;;;;;;;;;;5019768;28;19922;-74
2023/08/07 14:13:51;;;;;;;;;;;;;;;;;;5013125;28;19924;-74
2023/08/07 14:16:37;;;;;;;;;;;;;;;;;;5018319;28;19932;-74
2023/08/07 14:19:24;;;;;;;;;;;;;;;;;;5020845;28;19917;-74
2023/08/07 14:22:10;;;;;;;;;;;;;;;;;;5014457;28;19921;-73
2023/08/07 14:24:57;;;;;;;;;;;;;;;;;;5022654;28;19921;-73
2023/08/07 14:27:43;;;;;;;;;;;;;;;;;;5019092;28;19955;-74
2023/08/07 14:30:30;;;;;;;;;;;;;;;;;;5017712;28;19917;-74
2023/08/07 14:33:17;;;;;;;;;;;;;;;;;;5017788;28;19928;-74
2023/08/07 14:36:03;;;;;;;;;;;;;;;;;;5022870;28;19921;-74
2023/08/07 14:38:50;;;;;;;;;;;;;;;;;;5015725;28;19921;-73
2023/08/07 14:41:36;;;;;;;;;;;;;;;;;;5018531;28;19933;-74
2023/08/07 14:44:23;;;;;;;;;;;;;;;;;;5021468;28;19928;-74
2023/08/07 14:47:09;;;;;;;;;;;;;;;;;;5018708;28;20396;-73
2023/08/07 14:49:56;;;;;;;;;;;;;;;;;;5016788;28;19925;-73
2023/08/07 14:52:42;;;;;;;;;;;;;;;;;;5019335;28;21180;-75
2023/08/07 14:55:29;;;;;;;;;;;;;;;;;;5017811;28;19932;-75
2023/08/07 14:58:15;;;;;;;;;;;;;;;;;;5016906;28;20655;-72
2023/08/07 15:01:02;;;;;;;;;;;;;;;;;;5016799;28;19918;-73
2023/08/07 15:03:48;;;;;;;;;;;;;;;;;;5016624;28;19922;-74
2023/08/07 15:06:35;;;;;;;;;;;;;;;;;;5019819;28;19921;-75
2023/08/07 15:09:21;;;;;;;;;;;;;;;;;;5019806;28;19944;-73
2023/08/07 15:12:08;;;;;;;;;;;;;;;;;;5020396;28;19917;-74
2023/08/07 15:14:54;;;;;;;;;;;;;;;;;;5015207;28;19974;-74
2023/08/07 15:17:41;;;;;;;;;;;;;;;;;;5014876;28;19924;-74
2023/08/07 15:20:27;;;;;;;;;;;;;;;;;;5020715;28;19921;-74
2023/08/07 15:23:14;;;;;;;;;;;;;;;;;;5021361;28;19924;-74
2023/08/07 15:26:00;;;;;;;;;;;;;;;;;;5021885;28;20385;-73
2023/08/07 15:28:47;;;;;;;;;;;;;;;;;;5022006;28;19933;-74
2023/08/07 15:31:37;;;;;;;;;;;;;;;;;;5014399;28;20400;-73
2023/08/07 15:34:23;;;;;;;;;;;;;;;;;;5021428;28;20521;-73
2023/08/07 15:37:10;;;;;;;;;;;;;;;;;;5013983;28;19963;-74
2023/08/07 15:39:56;;;;;;;;;;;;;;;;;;5014887;28;19921;-73
2023/08/07 15:42:45;;;;;;;;;;;;;;;;;;5020028;28;20296;-75
2023/08/07 15:45:31;;;;;;;;;;;;;;;;;;5010407;28;19945;-74
2023/08/07 15:48:18;;;;;;;;;;;;;;;;;;5015674;28;19936;-74
2023/08/07 15:51:04;;;;;;;;;;;;;;;;;;5016432;28;19922;-74
2023/08/07 15:53:51;;;;;;;;;;;;;;;;;;5020409;28;19967;-75
2023/08/07 15:56:37;;;;;;;;;;;;;;;;;;5020700;28;20467;-75
2023/08/07 15:59:26;;;;;;;;;;;;;;;;;;5012269;28;19921;-75
2023/08/07 16:02:13;;;;;;;;;;;;;;;;;;5017472;28;19921;-74
2023/08/07 16:04:59;;;;;;;;;;;;;;;;;;5019041;28;19921;-74
2023/08/07 16:07:46;;;;;;;;;;;;;;;;;;5011459;28;19921;-73
2023/08/07 16:10:32;;;;;;;;;;;;;;;;;;5010175;28;19948;-74
2023/08/07 16:13:20;;;;;;;;;;;;;;;;;;5015516;28;19921;-73
2023/08/07 16:16:06;;;;;;;;;;;;;;;;;;5012892;28;19924;-74
2023/08/07 16:18:53;;;;;;;;;;;;;;;;;;5019591;28;19921;-73
2023/08/07 16:21:39;;;;;;;;;;;;;;;;;;5017634;28;20357;-74
2023/08/07 16:24:26;;;;;;;;;;;;;;;;;;5011120;28;19924;-74
2023/08/07 16:27:12;;;;;;;;;;;;;;;;;;5012611;28;20460;-73
2023/08/07 16:30:03;;;;;;;;;;;;;;;;;;5015361;28;20058;-74
2023/08/07 16:32:50;;;;;;;;;;;;;;;;;;5017778;28;19959;-74
2023/08/07 16:35:36;;;;;;;;;;;;;;;;;;5010039;28;19921;-75
2023/08/07 16:38:23;;;;;;;;;;;;;;;;;;5000554;28;19921;-74
2023/08/07 16:41:09;;;;;;;;;;;;;;;;;;5017525;28;20232;-73
2023/08/07 16:43:56;;;;;;;;;;;;;;;;;;5017236;28;19929;-72
2023/08/07 16:46:42;;;;;;;;;;;;;;;;;;5016712;28;19949;-73
2023/08/07 16:49:29;;;;;;;;;;;;;;;;;;5021147;28;20296;-73
2023/08/07 16:52:16;;;;;;;;;;;;;;;;;;5018806;28;19921;-73
2023/08/07 16:55:02;;;;;;;;;;;;;;;;;;5017798;28;19924;-73
2023/08/07 16:57:49;;;;;;;;;;;;;;;;;;5020460;28;19925;-72
2023/08/07 17:00:35;;;;;;;;;;;;;;;;;;5018284;28;19927;-73
2023/08/07 17:03:22;;;;;;;;;;;;;;;;;;5016250;28;19921;-73
2023/08/07 17:06:08;;;;;;;;;;;;;;;;;;5024512;28;19921;-73
2023/08/07 17:08:55;;;;;;;;;;;;;;;;;;5009057;28;19940;-73
2023/08/07 17:11:41;;;;;;;;;;;;;;;;;;5013157;28;19932;-73
2023/08/07 17:14:28;;;;;;;;;;;;;;;;;;5025930;28;20017;-73
2023/08/07 17:17:14;;;;;;;;;;;;;;;;;;5012730;28;19928;-74
2023/08/07 17:20:01;;;;;;;;;;;;;;;;;;4999043;28;19920;-72
2023/08/07 17:22:48;;;;;;;;;;;;;;;;;;5019643;28;19921;-74
2023/08/07 17:25:34;;;;;;;;;;;;;;;;;;5023662;28;19924;-73
2023/08/07 17:28:21;;;;;;;;;;;;;;;;;;5005917;28;19933;-73
2023/08/07 17:31:07;;;;;;;;;;;;;;;;;;4985083;28;19924;-74
2023/08/07 17:33:54;;;;;;;;;;;;;;;;;;4980371;28;19929;-73
2023/08/07 17:36:40;;;;;;;;;;;;;;;;;;4983723;28;19929;-74
2023/08/07 17:39:27;;;;;;;;;;;;;;;;;;4999294;28;19921;-73
2023/08/07 17:42:13;;;;;;;;;;;;;;;;;;4997975;28;19929;-74
2023/08/07 17:45:00;;;;;;;;;;;;;;;;;;5003742;28;19921;-74
2023/08/07 17:47:46;;;;;;;;;;;;;;;;;;5004802;28;19928;-73
2023/08/07 17:50:33;;;;;;;;;;;;;;;;;;5002855;28;19948;-73
2023/08/07 17:53:19;;;;;;;;;;;;;;;;;;4993567;28;19928;-74
2023/08/07 17:56:06;;;;;;;;;;;;;;;;;;4997724;28;19920;-73
2023/08/07 17:58:52;;;;;;;;;;;;;;;;;;5003472;28;20396;-73
2023/08/07 18:01:39;;;;;;;;;;;;;;;;;;5000585;28;19921;-73
2023/08/07 18:04:25;;;;;;;;;;;;;;;;;;4994170;28;20306;-74
2023/08/07 18:07:12;;;;;;;;;;;;;;;;;;5006102;28;19920;-74
2023/08/07 18:09:58;;;;;;;;;;;;;;;;;;4996998;28;19929;-74
2023/08/07 18:12:44;;;;;;;;;;;;;;;;;;5000847;28;19922;-73
2023/08/07 18:15:31;;;;;;;;;;;;;;;;;;4998451;28;19924;-74
2023/08/07 18:18:17;;;;;;;;;;;;;;;;;;5001099;28;19926;-74
2023/08/07 18:21:04;;;;;;;;;;;;;;;;;;4999783;28;19917;-73
2023/08/07 18:23:50;;;;;;;;;;;;;;;;;;4999418;28;19929;-74
2023/08/07 18:26:37;;;;;;;;;;;;;;;;;;5014817;28;19940;-74
2023/08/07 18:29:23;;;;;;;;;;;;;;;;;;5020080;28;20833;-73
2023/08/07 18:32:10;;;;;;;;;;;;;;;;;;5022353;28;19925;-74
2023/08/07 18:34:56;;;;;;;;;;;;;;;;;;5022766;28;19932;-73
2023/08/07 18:37:43;;;;;;;;;;;;;;;;;;5018633;28;19925;-74
2023/08/07 18:40:29;;;;;;;;;;;;;;;;;;5022144;28;19925;-74
2023/08/07 18:43:16;;;;;;;;;;;;;;;;;;5023526;28;19921;-74
2023/08/07 18:46:02;;;;;;;;;;;;;;;;;;5022498;28;19943;-74
2023/08/07 18:48:50;;;;;;;;;;;;;;;;;;5022852;28;19933;-75
2023/08/07 18:51:37;;;;;;;;;;;;;;;;;;5022456;28;19929;-75
2023/08/07 18:54:24;;;;;;;;;;;;;;;;;;5023774;28;19921;-74
2023/08/07 18:57:12;;;;;;;;;;;;;;;;;;5020486;28;19924;-75